Thebes, Egypt
Current Conditions -  °F | °C
As of 1:00 PM on Wednesday 28 Jan 2015 (Local Time) from HELX Reporting Station
Clear Clear  
Wind Chill: 79°   Ceiling: Unl
Heat Index: 79°   Visibility: 6mi
Dew Point: 50°   Wind: 3mph
Humidity: 36%   Direction: 330°NNW
Pressure: 29.88"   Gusts: NA
Location:  25.7°N, 32.58°E
Report Text: HELX 281100Z 33003KT CAVOK 26/10 Q1012 NOSIG
Loading
Personal Weather Stations






























Interactive Weather Map New forecast layout! Learn more

10-Day Weather Forecast

Advertisements
Track Severe Weather on mobile